sim
Sign-in with your pilot id or email,
or register
Callsign
Passwort

Schedule Details

Flight Number: DLH2109 (2)
Departure: Bremen Airport (EDDW) at 08:05
Arrival: Munich Airport (EDDM) at 09:15
Route: Lufthansa Passenger Schedule. Enter filed route here before submitting Pirep.

Weather Information
Getting current METAR information for EDDW 220020Z 00000KT 8000 R27/0700V1100D BCFG NSC 09/09 Q1013
Getting current METAR information for EDDM 220020Z VRB01KT 7000 3000NE R08L/0450N BCFG NSC 10/09 Q1015 NOSIG

Schedule Frequency

Route Map